Longwood, New York
Current Conditions -  °F | °C
As of 9:51 AM on Wednesday 22 Oct 2014 (Local Time) from KLGA Reporting Station
Light Rain Light Rain  
Wind Chill: 55°   Ceiling: 2000
Heat Index: 55°   Visibility: 10mi
Dew Point: 51°   Wind: 15mph
Humidity: 86%   Direction: 30°NNE
Pressure: 29.93"   Gusts: 23mph
Location:  40.8256°N, 73.8935°W
Report Text: KLGA 221351Z 03013G20KT 10SM -RA FEW016 OVC020 13/11 A2993 RMK AO2 SLP134 P0005 T01280106
Loading
Personal Weather Stations






























Interactive Weather Map
Tropical Storm Tracking
New forecast layout! Learn more

10-Day Weather Forecast

Advertisements
Track Severe Weather on mobile